Estación de Río Negro
Ultimos registro cada 15 minutos 56
| N° | Estación | Fecha / Hora | Temperatura | Humedad | Lluvia | Velocidad | Dirección | Radiación | Presion |
| 56 | Río Negro | 10-05-2026 13:45 | 15,7 | 69,8 | 0 | 1 | 234 | 494,4 | 1013,7 |
| 55 | Río Negro | 10-05-2026 13:30 | 15,7 | 71,6 | 0 | 1 | 209 | 505,6 | 1013,8 |
| 54 | Río Negro | 10-05-2026 13:15 | 15,3 | 71,4 | 0 | 0,5 | 241 | 514,4 | 1013,8 |
| 53 | Río Negro | 10-05-2026 13:00 | 14,7 | 72 | 0 | 0,5 | 232 | 523,1 | 1014 |
| 52 | Río Negro | 10-05-2026 12:45 | 14,2 | 71,5 | 0 | 0,5 | 239 | 494,4 | 1014,3 |
| 51 | Río Negro | 10-05-2026 12:30 | 13,5 | 70,5 | 0 | 1 | 215 | 514,4 | 1014,4 |
| 50 | Río Negro | 10-05-2026 12:15 | 13,6 | 71,7 | 0 | 0,5 | 195 | 504,4 | 1014,6 |
| 49 | Río Negro | 10-05-2026 12:00 | 12,7 | 72,2 | 0 | 0,5 | 218 | 493,1 | 1014,9 |
| 48 | Río Negro | 10-05-2026 11:45 | 12,8 | 73,1 | 0 | 0,5 | 225 | 480,6 | 1015,1 |
| 47 | Río Negro | 10-05-2026 11:30 | 12,3 | 75,2 | 0 | 0,5 | 204 | 464,4 | 1015,2 |
| 46 | Río Negro | 10-05-2026 11:15 | 11,6 | 77,3 | 0 | 0,5 | 192 | 444,4 | 1015,1 |
| 45 | Río Negro | 10-05-2026 11:00 | 11,2 | 79,9 | 0 | 0,5 | 209 | 420,6 | 1015,4 |
| 44 | Río Negro | 10-05-2026 10:45 | 10,9 | 82,1 | 0 | 0,5 | 248 | 396,9 | 1015,5 |
| 43 | Río Negro | 10-05-2026 10:30 | 10,2 | 84,3 | 0 | 0,5 | 215 | 366,9 | 1015,6 |
| 42 | Río Negro | 10-05-2026 10:15 | 9,7 | 87,4 | 0 | 0 | 220 | 335,6 | 1015,6 |
| 41 | Río Negro | 10-05-2026 10:00 | 8,3 | 89,8 | 0 | 0 | 202 | 299,4 | 1015,7 |
| 40 | Río Negro | 10-05-2026 09:45 | 7,1 | 92,4 | 0 | 0 | 232 | 73,1 | 1016 |
| 39 | Río Negro | 10-05-2026 09:30 | 6,4 | 94,1 | 0 | 0 | 166 | 43,1 | 1016 |
| 38 | Río Negro | 10-05-2026 09:15 | 6,4 | 96 | 0 | 0 | 101 | 154,4 | 1016,1 |
| 37 | Río Negro | 10-05-2026 09:00 | 4,9 | 98,5 | 0 | 0 | 101 | 176,9 | 1016 |
| 36 | Río Negro | 10-05-2026 08:45 | 4,3 | 99,5 | 0 | 0 | 101 | 141,9 | 1015,8 |
| 35 | Río Negro | 10-05-2026 08:30 | 2,6 | 99,7 | 0 | 0 | 86 | 89,4 | 1015,6 |
| 34 | Río Negro | 10-05-2026 08:15 | 1,5 | 100 | 0 | 0 | 84 | 14,4 | 1015,6 |
| 33 | Río Negro | 10-05-2026 08:00 | 0,7 | 99,8 | 0 | 0 | 39 | 9,4 | 1015,9 |
| 32 | Río Negro | 10-05-2026 07:45 | 0,7 | 99,7 | 0 | 0 | 320 | 1,9 | 1015,7 |
| 31 | Río Negro | 10-05-2026 07:30 | 0,9 | 99,5 | 0 | 0 | 320 | 0,6 | 1015,8 |
| 30 | Río Negro | 10-05-2026 07:15 | 1,9 | 99,7 | 0 | 0 | 319 | 0,6 | 1015,9 |
| 29 | Río Negro | 10-05-2026 07:00 | 1,4 | 99,6 | 0 | 0 | 319 | 0,6 | 1016,1 |
| 28 | Río Negro | 10-05-2026 06:45 | 1,4 | 99,4 | 0 | 0 | 319 | 0,6 | 1016,1 |
| 27 | Río Negro | 10-05-2026 06:30 | 2,1 | 99,4 | 0 | 0 | 319 | 0,6 | 1016,2 |
| 26 | Río Negro | 10-05-2026 06:15 | 2,2 | 99,5 | 0 | 0 | 277 | 0,6 | 1016 |
| 25 | Río Negro | 10-05-2026 06:00 | 2,6 | 99,7 | 0 | 0 | 206 | 0,6 | 1016,2 |
| 24 | Río Negro | 10-05-2026 05:45 | 2,4 | 99,6 | 0 | 0 | 263 | 0,6 | 1015,9 |
| 23 | Río Negro | 10-05-2026 05:30 | 2,6 | 99,6 | 0 | 0 | 263 | 0,6 | 1015,9 |
| 22 | Río Negro | 10-05-2026 05:15 | 2,9 | 99,8 | 0 | 0 | 248 | 0,6 | 1015,7 |
| 21 | Río Negro | 10-05-2026 05:00 | 2,7 | 99,6 | 0 | 0 | 164 | 0,6 | 1015,7 |
| 20 | Río Negro | 10-05-2026 04:45 | 2,1 | 99,4 | 0 | 0 | 156 | 0,6 | 1015,8 |
| 19 | Río Negro | 10-05-2026 04:30 | 2,1 | 98,9 | 0 | 0 | 150 | 0,6 | 1015,8 |
| 18 | Río Negro | 10-05-2026 04:15 | 2,2 | 99 | 0 | 0 | 197 | 0,6 | 1016 |
| 17 | Río Negro | 10-05-2026 04:00 | 3 | 99,4 | 0 | 0 | 243 | 0,6 | 1016 |
| 16 | Río Negro | 10-05-2026 03:45 | 3,1 | 99,2 | 0 | 0 | 240 | 0,6 | 1016 |
| 15 | Río Negro | 10-05-2026 03:30 | 2,8 | 99,3 | 0 | 0 | 240 | 0,6 | 1016,1 |
| 14 | Río Negro | 10-05-2026 03:15 | 3 | 99 | 0 | 0 | 240 | 0,6 | 1016,2 |
| 13 | Río Negro | 10-05-2026 03:00 | 3 | 99,1 | 0 | 0 | 241 | 0,6 | 1016,3 |
| 12 | Río Negro | 10-05-2026 02:45 | 3,4 | 98,9 | 0 | 0 | 156 | 0,6 | 1016,3 |
| 11 | Río Negro | 10-05-2026 02:30 | 3,4 | 98,9 | 0 | 0 | 84 | 0,6 | 1016,5 |
| 10 | Río Negro | 10-05-2026 02:15 | 3,1 | 98,6 | 0 | 0 | 27 | 0,6 | 1016,5 |
| 9 | Río Negro | 10-05-2026 02:00 | 3,4 | 98,3 | 0 | 0 | 66 | 0,6 | 1016,4 |
| 8 | Río Negro | 10-05-2026 01:45 | 3,7 | 98,1 | 0 | 0 | 76 | 0,6 | 1016,4 |
| 7 | Río Negro | 10-05-2026 01:30 | 4 | 97,7 | 0 | 0 | 254 | 0,6 | 1016,4 |
| 6 | Río Negro | 10-05-2026 01:15 | 4,4 | 98,1 | 0 | 0 | 275 | 0,6 | 1016,4 |
| 5 | Río Negro | 10-05-2026 01:00 | 3,8 | 98,6 | 0 | 0 | 226 | 0,6 | 1016,6 |
| 4 | Río Negro | 10-05-2026 00:45 | 3,5 | 98,3 | 0 | 0 | 168 | 0,6 | 1016,8 |
| 3 | Río Negro | 10-05-2026 00:30 | 3,7 | 98,2 | 0 | 0 | 188 | 0,6 | 1016,8 |
| 2 | Río Negro | 10-05-2026 00:15 | 4,2 | 98,3 | 0 | 0 | 257 | 0,6 | 1017,1 |
| 1 | Río Negro | 10-05-2026 00:00 | 3,8 | 98,6 | 0 | 0 | 295 | 0,6 | 1017,2 |